Home > Products > Valid Products > MTR

000
SAUS45 KGGW 071049
MTRJDN
METAR KJDN 071048Z AUTO 10004KT 12/08 A3007 RMK AO1 SLP177 T01220078





000
SAUS45 KGGW 070949
MTRJDN
METAR KJDN 070948Z AUTO 12004KT 13/08 A3008 RMK AO1 SLP179 T01330078





000
SAUS45 KGGW 070849
MTRJDN
METAR KJDN 070848Z AUTO 10004KT 13/08 A3009 RMK AO1 SLP183 T01330078
58010





000
SAUS45 KGGW 070849
MTRJDN
METAR KJDN 070848Z AUTO 10004KT 13/08 A3009 RMK AO1 SLP183 T01330078
58010





000
SAUS45 KGGW 070749
MTRJDN
METAR KJDN 070748Z AUTO 09005KT 14/08 A3010 RMK AO1 SLP188 T01390078





000
SAUS45 KGGW 070649
MTRJDN
METAR KJDN 070648Z AUTO 09006KT 14/08 A3011 RMK AO1 SLP193 T01390083
402440111





000
SAUS45 KGGW 070649
MTRJDN
METAR KJDN 070648Z AUTO 09006KT 14/08 A3011 RMK AO1 SLP193 T01390083
402440111





000
SAUS45 KGGW 070549
MTRJDN
METAR KJDN 070548Z AUTO 08003KT 13/09 A3012 RMK AO1 SLP196 T01330094
10244 20133 51003





000
SAUS45 KGGW 070549
MTRJDN
METAR KJDN 070548Z AUTO 08003KT 13/09 A3012 RMK AO1 SLP196 T01330094
10244 20133 51003





000
SAUS45 KGGW 070450
MTRJDN
METAR KJDN 070448Z AUTO 09004KT 16/09 A3012 RMK AO1 SLP195 T01560094





000
SAUS45 KGGW 070349
MTRJDN
METAR KJDN 070348Z AUTO 07005KT 17/09 A3012 RMK AO1 SLP194 T01670089





000
SAUS45 KGGW 070249
MTRJDN
METAR KJDN 070248Z AUTO 07006KT 20/08 A3011 RMK AO1 SLP190 T02000083
56006





000
SAUS45 KGGW 070149
MTRJDN
METAR KJDN 070148Z AUTO 09007KT 23/07 A3011 RMK AO1 SLP190 T02280072





000
SAUS45 KGGW 070049
MTRJDN
METAR KJDN 070048Z AUTO 10008KT 23/07 A3012 RMK AO1 SLP194 T02330067





000
SAUS45 KGGW 062349
MTRJDN
METAR KJDN 062348Z AUTO 35004KT 24/07 A3013 RMK AO1 SLP198 T02390067
10244 20194 58015





000
SAUS45 KGGW 062249
MTRJDN
METAR KJDN 062248Z AUTO 01005KT 24/07 A3015 RMK AO1 SLP204 T02390072





000
SAUS45 KGGW 062150
MTRJDN
METAR KJDN 062148Z AUTO VRB03KT 24/07 A3016 RMK AO1 SLP207 T02390067





000
SAUS45 KGGW 062049
MTRJDN
METAR KJDN 062048Z AUTO VRB04KT 23/08 A3018 RMK AO1 SLP213 T02280078
58014





000
SAUS45 KGGW 061949
MTRJDN
METAR KJDN 061948Z AUTO 00000KT 22/08 A3020 RMK AO1 SLP221 T02170078





000
SAUS45 KGGW 061849
MTRJDN
METAR KJDN 061848Z AUTO VRB03KT 22/08 A3021 RMK AO1 SLP225 T02170083





000
SAUS45 KGGW 061849
MTRJDN
METAR KJDN 061848Z AUTO VRB03KT 22/08 A3021 RMK AO1 SLP225 T02170083





000
SAUS45 KGGW 061749
MTRJDN
METAR KJDN 061748Z AUTO 33005KT 19/08 A3022 RMK AO1 SLP231 T01940078
10206 20111 56006





000
SAUS45 KGGW 061649
MTRJDN
METAR KJDN 061648Z AUTO VRB04KT 20/09 A3023 RMK AO1 SLP232 T02000089





000
SAUS45 KGGW 061549
MTRJDN
METAR KJDN 061548Z AUTO 34009KT 18/10 A3023 RMK AO1 SLP236 T01830100





000
SAUS45 KGGW 061449
MTRJDN
METAR KJDN 061448Z AUTO 31008KT 17/11 A3024 RMK AO1 SLP240 T01670111
51005





000
SAUS45 KGGW 061349
MTRJDN
METAR KJDN 061348Z AUTO 29007KT 15/12 A3024 RMK AO1 SLP240 T01500122





000
SAUS45 KGGW 061249
MTRJDN
METAR KJDN 061248Z AUTO 27006KT 12/11 A3024 RMK AO1 SLP241 T01220111





000
SAUS45 KGGW 061249
MTRJDN
METAR KJDN 061248Z AUTO 27006KT 12/11 A3024 RMK AO1 SLP241 T01220111





000
SAUS45 KGGW 061149
MTRJDN
METAR KJDN 061148Z AUTO 28004KT 11/11 A3022 RMK AO1 SLP238 60001
70002 T01110106 10139 20111 51007





000
SAUS45 KGGW 061049
MTRJDN
METAR KJDN 061048Z AUTO 27005KT 12/11 A3022 RMK AO1 SLP233 T01220111





000
SAUS45 KGGW 061049
MTRJDN
METAR KJDN 061048Z AUTO 27005KT 12/11 A3022 RMK AO1 SLP233 T01220111





000
SAUS45 KGGW 060949
MTRJDN
METAR KJDN 060948Z AUTO 29004KT 13/12 A3021 RMK AO1 SLP229 P0001
T01330117





000
SAUS45 KGGW 060849
MTRJDN
METAR KJDN 060848Z AUTO 33008KT 13/12 A3020 RMK AO1 SLP223 T01330117
53007





000
SAUS45 KGGW 060749
MTRJDN
METAR KJDN 060748Z AUTO 32010KT 14/12 A3019 RMK AO1 SLP219 T01390122





000
SAUS45 KGGW 060649
MTRJDN
METAR KJDN 060648Z AUTO 28006KT 14/12 A3019 RMK AO1 SLP221 T01390122
402220139





000
SAUS45 KGGW 060549
MTRJDN
METAR KJDN 060548Z AUTO 28009KT 14/12 A3018 RMK AO1 SLP216 60001
T01390122 10156 20139 51010





000
SAUS45 KGGW 060449
MTRJDN
METAR KJDN 060448Z AUTO 29007KT 14/12 A3017 RMK AO1 SLP213 T01440122





000
SAUS45 KGGW 060449
MTRJDN
METAR KJDN 060448Z AUTO 29007KT 14/12 A3017 RMK AO1 SLP213 T01440122





000
SAUS45 KGGW 060349
MTRJDN
METAR KJDN 060348Z AUTO 28007KT 14/13 A3016 RMK AO1 SLP212 T01440128





000
SAUS45 KGGW 060249
MTRJDN
METAR KJDN 060248Z AUTO 28007KT 14/13 A3014 RMK AO1 SLP207 60001
T01440133 53004





000
SAUS45 KGGW 060249
MTRJDN
METAR KJDN 060248Z AUTO 28007KT 14/13 A3014 RMK AO1 SLP207 60001
T01440133 53004





000
SAUS45 KGGW 060149
MTRJDN
METAR KJDN 060148Z AUTO 28007KT 15/13 A3013 RMK AO1 SLP203 P0001
T01500133





000
SAUS45 KGGW 060049
MTRJDN
METAR KJDN 060048Z AUTO 29007KT 15/13 A3012 RMK AO1 SLP201 T01500128





000
SAUS45 KGGW 052349
MTRJDN
METAR KJDN 052348Z AUTO 33012KT 16/12 A3013 RMK AO1 SLP204 T01560117
10217 20156 51017





000
SAUS45 KGGW 052249
MTRJDN
METAR KJDN 052248Z AUTO 33012KT 17/09 A3013 RMK AO1 SLP200 T01720094





000
SAUS45 KGGW 052249
MTRJDN
METAR KJDN 052248Z AUTO 33012KT 17/09 A3013 RMK AO1 SLP200 T01720094





000
SAUS45 KGGW 052149
MTRJDN
METAR KJDN 052148Z AUTO 35014KT 19/09 A3009 RMK AO1 SLP186 T01940094





000
SAUS45 KGGW 052149
MTRJDN
METAR KJDN 052148Z AUTO 35014KT 19/09 A3009 RMK AO1 SLP186 T01940094





000
SAUS45 KGGW 052049
MTRJDN
METAR KJDN 052048Z AUTO 36015G19KT 22/10 A3008 RMK AO1 SLP179
T02170100 50005





000
SAUS45 KGGW 052049
MTRJDN
METAR KJDN 052048Z AUTO 36015G19KT 22/10 A3008 RMK AO1 SLP179
T02170100 50005





000
SAUS45 KGGW 051949
MTRJDN
METAR KJDN 051948Z AUTO 36016KT 20/10 A3008 RMK AO1 SLP178 T02000100





000
SAUS45 KGGW 051849
MTRJDN
METAR KJDN 051848Z AUTO 35015KT 19/11 A3008 RMK AO1 SLP173 T01940106





000
SAUS45 KGGW 051749
MTRJDN
METAR KJDN 051748Z AUTO 01017KT 20/09 A3006 RMK AO1 SLP168 T02000094
10206 20144 53005





000
SAUS45 KGGW 051649
MTRJDN
METAR KJDN 051648Z AUTO 34017KT 20/11 A3005 RMK AO1 SLP164 T02000106





000
SAUS45 KGGW 051549
MTRJDN
METAR KJDN 051548Z AUTO 36016G24KT 19/11 A3004 RMK AO1 SLP161
T01890111





000
SAUS45 KGGW 051449
MTRJDN
METAR KJDN 051448Z AUTO 35013G20KT 17/12 A3005 RMK AO1 SLP163
T01670117 52033





000
SAUS45 KGGW 051349
MTRJDN
METAR KJDN 051348Z AUTO 35009KT 16/12 A3001 RMK AO1 SLP149 T01560122





000
SAUS45 KGGW 051349
MTRJDN
METAR KJDN 051348Z AUTO 35009KT 16/12 A3001 RMK AO1 SLP149 T01560122





000
SAUS45 KGGW 051249
MTRJDN
METAR KJDN 051248Z AUTO 36011KT 14/12 A2998 RMK AO1 SLP138 T01440122





000
SAUS45 KGGW 051249
MTRJDN
METAR KJDN 051248Z AUTO 36011KT 14/12 A2998 RMK AO1 SLP138 T01440122





000
SAUS45 KGGW 051149
MTRJDN
METAR KJDN 051148Z AUTO 01015KT 14/12 A2994 RMK AO1 SLP122 60030
70030 T01440122 10233 20144 53010





000
SAUS45 KGGW 051149
MTRJDN
METAR KJDN 051148Z AUTO 01015KT 14/12 A2994 RMK AO1 SLP122 60030
70030 T01440122 10233 20144 53010





000
SAUS45 KGGW 051049
MTRJDN
METAR KJDN 051048Z AUTO 36014KT 15/13 A2990 RMK AO1 SLP106 T01500133





000
SAUS45 KGGW 050949
MTRJDN
METAR KJDN 050948Z AUTO 07017G30KT 15/13 A2987 RMK AO1 PK WND
02032/0918 SLP096 P0012 T01500133





000
SAUS45 KGGW 050849
MTRJDN
METAR KJDN 050848Z AUTO 02020G33KT 16/14 A2991 RMK AO1 PK WND
31041/0826 WSHFT 0812 SLP108 P0018 60018 T01610144 53047





000
SAUS45 KGGW 050831
MTRJDN
SPECI KJDN 050829Z AUTO 34024G41KT 17/14 A2993 RMK AO1 PK WND
31041/0826 WSHFT 0812 T01670139





000
SAUS45 KGGW 050831
MTRJDN
SPECI KJDN 050829Z AUTO 34024G41KT 17/14 A2993 RMK AO1 PK WND
31041/0826 WSHFT 0812 T01670139





000
SAUS45 KGGW 050749
MTRJDN
METAR KJDN 050748Z AUTO 02021G32KT 19/14 A2982 RMK AO1 PK WND
02032/0740 WSHFT 0702 SLP076 T01890139





000
SAUS45 KGGW 050720
MTRJDN
SPECI KJDN 050719Z AUTO 01019G25KT 22/16 A2982 RMK AO1 WSHFT 0702
T02220156





000
SAUS45 KGGW 050720
MTRJDN
SPECI KJDN 050719Z AUTO 01019G25KT 22/16 A2982 RMK AO1 WSHFT 0702
T02220156





000
SAUS45 KGGW 050649
MTRJDN
METAR KJDN 050648Z AUTO 11009KT 22/16 A2974 RMK AO1 SLP046 T02220161
403670133





000
SAUS45 KGGW 050649
MTRJDN
METAR KJDN 050648Z AUTO 11009KT 22/16 A2974 RMK AO1 SLP046 T02220161
403670133





000
SAUS45 KGGW 050549
MTRJDN
METAR KJDN 050548Z AUTO 09007KT 23/15 A2976 RMK AO1 SLP052 T02280150
10333 20228 58006





000
SAUS45 KGGW 050449
MTRJDN
METAR KJDN 050448Z AUTO 08009KT 23/14 A2978 RMK AO1 SLP060 T02330144





000
SAUS45 KGGW 050349
MTRJDN
METAR KJDN 050348Z AUTO 05010KT 24/14 A2980 RMK AO1 SLP066 T02440139





000
SAUS45 KGGW 050249
MTRJDN
METAR KJDN 050248Z AUTO 04014KT 27/15 A2978 RMK AO1 SLP060 T02670150
51017





000
SAUS45 KGGW 050249
MTRJDN
METAR KJDN 050248Z AUTO 04014KT 27/15 A2978 RMK AO1 SLP060 T02670150
51017





000
SAUS45 KGGW 050149
MTRJDN
METAR KJDN 050148Z AUTO 03019KT 28/16 A2976 RMK AO1 SLP058 T02830156





000
SAUS45 KGGW 050149
MTRJDN
METAR KJDN 050148Z AUTO 03019KT 28/16 A2976 RMK AO1 SLP058 T02830156





000
SAUS45 KGGW 050049
MTRJDN
METAR KJDN 050048Z AUTO 03016KT 31/16 A2975 RMK AO1 SLP054 T03110156





000
SAUS45 KGGW 050049
MTRJDN
METAR KJDN 050048Z AUTO 03016KT 31/16 A2975 RMK AO1 SLP054 T03110156





000
SAUS45 KGGW 042349
MTRJDN
METAR KJDN 042348Z AUTO 36014KT 34/13 A2972 RMK AO1 SLP048 T03390128
10367 20339 51003





000
SAUS45 KGGW 042249
MTRJDN
METAR KJDN 042248Z AUTO 34016KT 35/11 A2972 RMK AO1 PK WND
35027/2229 SLP047 T03500106





000
SAUS45 KGGW 042249
MTRJDN
METAR KJDN 042248Z AUTO 34016KT 35/11 A2972 RMK AO1 PK WND
35027/2229 SLP047 T03500106





000
SAUS45 KGGW 042149
MTRJDN
METAR KJDN 042148Z AUTO 31018G23KT 36/09 A2972 RMK AO1 SLP042
T03610089





000
SAUS45 KGGW 042049
MTRJDN
METAR KJDN 042048Z AUTO 32015G25KT 36/08 A2971 RMK AO1 SLP040
T03610083 56004





000
SAUS45 KGGW 041949
MTRJDN
METAR KJDN 041948Z AUTO 33013G24KT 36/09 A2972 RMK AO1 SLP039
T03610094





000
SAUS45 KGGW 041949
MTRJDN
METAR KJDN 041948Z AUTO 33013G24KT 36/09 A2972 RMK AO1 SLP039
T03610094





000
SAUS45 KGGW 041849
MTRJDN
METAR KJDN 041848Z AUTO 28012G21KT 36/08 A2972 RMK AO1 SLP040
T03560078





000
SAUS45 KGGW 041749
MTRJDN
METAR KJDN 041748Z AUTO 28013KT 34/10 A2973 RMK AO1 SLP042 T03440100
10350 20139 56006





000
SAUS45 KGGW 041649
MTRJDN
METAR KJDN 041648Z AUTO 23016G21KT 33/12 A2973 RMK AO1 SLP044
T03280117





000
SAUS45 KGGW 041549
MTRJDN
METAR KJDN 041548Z AUTO 22013G19KT 32/13 A2974 RMK AO1 SLP046
T03220128





000
SAUS45 KGGW 041449
MTRJDN
METAR KJDN 041448Z AUTO 27005KT 28/14 A2975 RMK AO1 SLP049 T02830139
56006





000
SAUS45 KGGW 041349
MTRJDN
METAR KJDN 041348Z AUTO 00000KT 23/12 A2975 RMK AO1 SLP052 T02280117





000
SAUS45 KGGW 041249
MTRJDN
METAR KJDN 041248Z AUTO 00000KT 17/11 A2976 RMK AO1 SLP059 T01720111





000
SAUS45 KGGW 041249
MTRJDN
METAR KJDN 041248Z AUTO 00000KT 17/11 A2976 RMK AO1 SLP059 T01720111





000
SAUS45 KGGW 041149
MTRJDN
METAR KJDN 041148Z AUTO 27003KT 14/10 A2977 RMK AO1 SLP063 T01390100
10222 20133 55005





    US Dept of Commerce
    National Oceanic and Atmospheric Administration
    National Weather Service
    1325 East West Highway
    Silver Spring, MD 20910
    Page Author: NWS Internet Services Team
Disclaimer
Information Quality
Credits
Glossary
Privacy Policy
Freedom of Information Act (FOIA)
About Us
Career Opportunities